createdAt,value
2018-12-10T00:00:09.303Z,1006.98
2018-12-10T00:00:35.432Z,1006.95
2018-12-10T00:01:01.535Z,1006.9
2018-12-10T00:01:27.640Z,1006.98
2018-12-10T00:01:53.754Z,1006.99
2018-12-10T00:02:19.916Z,1006.95
2018-12-10T00:02:46.240Z,1006.94
2018-12-10T00:03:12.358Z,1006.96
2018-12-10T00:03:38.489Z,1006.96
2018-12-10T00:04:04.601Z,1006.98
2018-12-10T00:04:30.699Z,1006.96
2018-12-10T00:04:56.802Z,1006.97
2018-12-10T00:05:22.940Z,1006.92
2018-12-10T00:05:49.049Z,1006.97
2018-12-10T00:06:15.152Z,1006.97
2018-12-10T00:06:41.256Z,1006.94
2018-12-10T00:07:07.360Z,1006.92
2018-12-10T00:07:33.475Z,1007.01
2018-12-10T00:07:59.577Z,1006.99
2018-12-10T00:08:25.734Z,1006.99
2018-12-10T00:08:51.892Z,1007
2018-12-10T00:09:18.000Z,1007.01
2018-12-10T00:09:44.108Z,1006.99
2018-12-10T00:10:10.214Z,1007.04
2018-12-10T00:10:41.477Z,1007.01
2018-12-10T00:11:03.442Z,1007.06
2018-12-10T00:11:29.546Z,1007.03
2018-12-10T00:11:55.660Z,1007.07
2018-12-10T00:12:21.762Z,1007.05
2018-12-10T00:12:47.904Z,1007.06
2018-12-10T00:13:14.034Z,1007.04
2018-12-10T00:13:40.158Z,1007.08
2018-12-10T00:14:06.301Z,1007.07
2018-12-10T00:14:32.447Z,1007.06
2018-12-10T00:14:58.551Z,1007.11
2018-12-10T00:15:24.680Z,1007.07
2018-12-10T00:15:50.789Z,1007.1
2018-12-10T00:16:16.896Z,1007.09
2018-12-10T00:16:43.044Z,1007.09
2018-12-10T00:17:09.147Z,1007.11
2018-12-10T00:17:35.274Z,1007.15
2018-12-10T00:18:01.405Z,1007.14
2018-12-10T00:18:27.508Z,1007.13
2018-12-10T00:18:53.609Z,1007.15
2018-12-10T00:19:19.724Z,1007.11
2018-12-10T00:19:45.835Z,1007.11
2018-12-10T00:20:11.933Z,1007.15
2018-12-10T00:20:38.057Z,1007.13
2018-12-10T00:21:04.164Z,1007.17
2018-12-10T00:21:30.267Z,1007.16
2018-12-10T00:21:56.373Z,1007.18
2018-12-10T00:22:22.514Z,1007.18
2018-12-10T00:22:48.719Z,1007.22
2018-12-10T00:23:14.854Z,1007.24
2018-12-10T00:23:40.959Z,1007.25
2018-12-10T00:24:07.055Z,1007.27
2018-12-10T00:24:33.167Z,1007.26
2018-12-10T00:24:59.276Z,1007.24
2018-12-10T00:25:25.382Z,1007.27
2018-12-10T00:25:51.486Z,1007.26
2018-12-10T00:26:17.592Z,1007.29
2018-12-10T00:26:43.697Z,1007.28
2018-12-10T00:27:11.605Z,1007.27
2018-12-10T00:27:35.965Z,1007.27
2018-12-10T00:28:02.071Z,1007.28
2018-12-10T00:28:28.185Z,1007.3
2018-12-10T00:28:54.287Z,1007.27
2018-12-10T00:29:20.398Z,1007.31
2018-12-10T00:29:46.499Z,1007.26
2018-12-10T00:30:12.600Z,1007.26
2018-12-10T00:30:38.710Z,1007.28
2018-12-10T00:31:04.817Z,1007.29
2018-12-10T00:31:30.920Z,1007.27
2018-12-10T00:31:57.026Z,1007.29
2018-12-10T00:32:23.130Z,1007.28
2018-12-10T00:32:49.259Z,1007.25
2018-12-10T00:33:15.412Z,1007.31
2018-12-10T00:33:41.542Z,1007.3
2018-12-10T00:34:07.643Z,1007.3
2018-12-10T00:34:33.753Z,1007.3
2018-12-10T00:34:59.852Z,1007.3
2018-12-10T00:35:25.955Z,1007.32
2018-12-10T00:35:52.063Z,1007.3
2018-12-10T00:36:18.170Z,1007.35
2018-12-10T00:36:44.276Z,1007.32
2018-12-10T00:37:10.381Z,1007.33
2018-12-10T00:37:36.486Z,1007.35
2018-12-10T00:38:02.649Z,1007.34
2018-12-10T00:38:28.752Z,1007.3
2018-12-10T00:38:54.859Z,1007.36
2018-12-10T00:39:20.957Z,1007.39
2018-12-10T00:39:47.069Z,1007.37
2018-12-10T00:40:13.172Z,1007.4
2018-12-10T00:40:39.280Z,1007.39
2018-12-10T00:41:05.412Z,1007.45
2018-12-10T00:41:31.544Z,1007.44
2018-12-10T00:41:57.648Z,1007.49
2018-12-10T00:42:23.757Z,1007.51
2018-12-10T00:42:49.861Z,1007.45
2018-12-10T00:43:15.960Z,1007.52
2018-12-10T00:43:42.063Z,1007.56
2018-12-10T00:44:08.165Z,1007.57
2018-12-10T00:44:34.278Z,1007.55
2018-12-10T00:45:00.408Z,1007.52
2018-12-10T00:45:26.512Z,1007.47
2018-12-10T00:45:52.611Z,1007.5
2018-12-10T00:46:18.755Z,1007.5
2018-12-10T00:46:44.860Z,1007.51
2018-12-10T00:47:10.963Z,1007.49
2018-12-10T00:47:37.073Z,1007.32
2018-12-10T00:48:03.205Z,1007.42
2018-12-10T00:48:29.318Z,1007.5
2018-12-10T00:48:55.417Z,1007.56
2018-12-10T00:49:21.577Z,1007.49
2018-12-10T00:49:47.680Z,1007.52
2018-12-10T00:50:13.823Z,1007.43
2018-12-10T00:50:39.929Z,1007.58
2018-12-10T00:51:06.063Z,1007.52
2018-12-10T00:51:32.157Z,1007.49
2018-12-10T00:51:58.263Z,1007.53
2018-12-10T00:52:24.402Z,1007.62
2018-12-10T00:52:50.516Z,1007.64
2018-12-10T00:53:16.711Z,1007.54
2018-12-10T00:53:42.762Z,1007.63
2018-12-10T00:54:08.867Z,1007.63
2018-12-10T00:54:35.001Z,1007.63
2018-12-10T00:55:01.133Z,1007.58
2018-12-10T00:55:27.233Z,1007.55
2018-12-10T00:55:53.343Z,1007.62
2018-12-10T00:56:19.451Z,1007.67
2018-12-10T00:56:45.560Z,1007.67
2018-12-10T00:57:11.665Z,1007.68
2018-12-10T00:57:37.777Z,1007.65
2018-12-10T00:58:03.883Z,1007.62
2018-12-10T00:58:29.983Z,1007.64
2018-12-10T00:58:56.088Z,1007.64
2018-12-10T00:59:22.196Z,1007.7
2018-12-10T00:59:48.300Z,1007.66
2018-12-10T01:00:14.407Z,1007.65
2018-12-10T01:00:40.517Z,1007.62
2018-12-10T01:01:06.619Z,1007.66
2018-12-10T01:01:32.724Z,1007.63
2018-12-10T01:01:58.857Z,1007.69
2018-12-10T01:02:24.959Z,1007.68
2018-12-10T01:02:51.060Z,1007.62
2018-12-10T01:03:17.168Z,1007.67
2018-12-10T01:03:43.275Z,1007.68
2018-12-10T01:04:09.383Z,1007.67
2018-12-10T01:04:35.481Z,1007.66
2018-12-10T01:05:01.591Z,1007.7
2018-12-10T01:05:27.730Z,1007.67
2018-12-10T01:05:53.829Z,1007.69
2018-12-10T01:06:19.934Z,1007.62
2018-12-10T01:06:46.046Z,1007.63
2018-12-10T01:07:13.139Z,1007.67
2018-12-10T01:07:39.254Z,1007.65
2018-12-10T01:08:05.360Z,1007.67
2018-12-10T01:08:31.485Z,1007.68
2018-12-10T01:08:57.596Z,1007.7
2018-12-10T01:09:23.704Z,1007.6
2018-12-10T01:09:49.809Z,1007.68
2018-12-10T01:10:15.912Z,1007.66
2018-12-10T01:10:42.020Z,1007.64
2018-12-10T01:11:08.153Z,1007.65
2018-12-10T01:11:34.259Z,1007.6
2018-12-10T01:12:00.359Z,1007.64
2018-12-10T01:12:26.464Z,1007.67
2018-12-10T01:12:52.573Z,1007.68
2018-12-10T01:13:18.674Z,1007.66
2018-12-10T01:13:44.783Z,1007.68
2018-12-10T01:14:10.908Z,1007.71
2018-12-10T01:14:37.014Z,1007.77
2018-12-10T01:15:03.121Z,1007.73
2018-12-10T01:15:29.250Z,1007.72
2018-12-10T01:15:55.347Z,1007.76
2018-12-10T01:16:21.457Z,1007.75
2018-12-10T01:16:47.566Z,1007.75
2018-12-10T01:17:13.662Z,1007.82
2018-12-10T01:17:39.817Z,1007.79
2018-12-10T01:18:05.912Z,1007.84
2018-12-10T01:18:32.019Z,1007.82
2018-12-10T01:18:58.120Z,1007.78
2018-12-10T01:19:24.229Z,1007.83
2018-12-10T01:19:50.385Z,1007.85
2018-12-10T01:20:16.492Z,1007.84
2018-12-10T01:20:42.593Z,1007.81
2018-12-10T01:21:08.753Z,1007.78
2018-12-10T01:21:34.865Z,1007.8
2018-12-10T01:22:00.969Z,1007.86
2018-12-10T01:22:27.072Z,1007.82
2018-12-10T01:22:53.171Z,1007.85
2018-12-10T01:23:19.277Z,1007.89
2018-12-10T01:23:45.378Z,1007.89
2018-12-10T01:24:11.490Z,1007.95
2018-12-10T01:24:37.590Z,1007.91
2018-12-10T01:25:03.734Z,1007.91
2018-12-10T01:25:29.836Z,1007.98
2018-12-10T01:25:55.942Z,1007.97
2018-12-10T01:26:22.043Z,1007.97
2018-12-10T01:26:48.152Z,1007.94
2018-12-10T01:27:14.249Z,1008.02
2018-12-10T01:27:40.357Z,1008.01
2018-12-10T01:28:06.461Z,1007.96
2018-12-10T01:28:32.566Z,1008
2018-12-10T01:28:58.695Z,1008
2018-12-10T01:29:24.797Z,1007.98
2018-12-10T01:29:50.904Z,1008.04
2018-12-10T01:30:17.013Z,1007.98
2018-12-10T01:30:43.151Z,1008.03
2018-12-10T01:31:09.253Z,1008.11
2018-12-10T01:31:35.357Z,1008.02
2018-12-10T01:32:01.463Z,1008.05
2018-12-10T01:32:27.569Z,1008.04
2018-12-10T01:32:53.673Z,1008.1
2018-12-10T01:33:19.802Z,1008.07
2018-12-10T01:33:45.907Z,1008.02
2018-12-10T01:34:12.009Z,1008.06
2018-12-10T01:34:38.114Z,1008.09
2018-12-10T01:35:04.219Z,1008.1
2018-12-10T01:35:30.315Z,1008.05
2018-12-10T01:35:56.421Z,1008.12
2018-12-10T01:36:22.533Z,1008.08
2018-12-10T01:36:48.629Z,1008.1
2018-12-10T01:37:14.770Z,1008.13
2018-12-10T01:37:40.875Z,1008.12
2018-12-10T01:38:06.976Z,1008.12
2018-12-10T01:38:33.087Z,1008.14
2018-12-10T01:38:59.186Z,1008.12
2018-12-10T01:39:25.293Z,1008.14
2018-12-10T01:39:51.451Z,1008.12
2018-12-10T01:40:17.553Z,1008.12
2018-12-10T01:40:43.665Z,1008.12
2018-12-10T01:41:09.762Z,1008.17
2018-12-10T01:41:35.867Z,1008.2
2018-12-10T01:42:01.972Z,1008.2
2018-12-10T01:42:28.112Z,1008.24
2018-12-10T01:42:54.244Z,1008.15
2018-12-10T01:43:20.378Z,1008.23
2018-12-10T01:43:46.534Z,1008.2
2018-12-10T01:44:12.660Z,1008.26
2018-12-10T01:44:38.784Z,1008.27
2018-12-10T01:45:04.908Z,1008.29
2018-12-10T01:45:31.031Z,1008.19
2018-12-10T01:45:57.173Z,1008.23
2018-12-10T01:46:23.275Z,1008.25
2018-12-10T01:46:49.376Z,1008.28
2018-12-10T01:47:15.509Z,1008.23
2018-12-10T01:47:41.640Z,1008.23
2018-12-10T01:48:07.745Z,1008.34
2018-12-10T01:48:33.856Z,1008.27
2018-12-10T01:48:59.960Z,1008.28
2018-12-10T01:49:26.059Z,1008.39
2018-12-10T01:49:52.167Z,1008.3
2018-12-10T01:50:18.275Z,1008.39
2018-12-10T01:50:44.379Z,1008.4
2018-12-10T01:51:10.485Z,1008.41
2018-12-10T01:51:36.586Z,1008.38
2018-12-10T01:52:02.721Z,1008.38
2018-12-10T01:52:28.858Z,1008.35
2018-12-10T01:52:54.972Z,1008.39
2018-12-10T01:53:21.071Z,1008.38
2018-12-10T01:53:47.177Z,1008.35
2018-12-10T01:54:13.278Z,1008.36
2018-12-10T01:54:39.420Z,1008.39
2018-12-10T01:55:05.527Z,1008.45
2018-12-10T01:55:31.632Z,1008.39
2018-12-10T01:55:57.735Z,1008.48
2018-12-10T01:56:23.900Z,1008.46
2018-12-10T01:56:50.006Z,1008.49
2018-12-10T01:57:16.114Z,1008.43
2018-12-10T01:57:42.225Z,1008.45
2018-12-10T01:58:08.330Z,1008.46
2018-12-10T01:58:34.435Z,1008.51
2018-12-10T01:59:00.578Z,1008.49
2018-12-10T01:59:26.679Z,1008.52
2018-12-10T01:59:52.782Z,1008.54
2018-12-10T02:00:18.922Z,1008.54
2018-12-10T02:00:45.028Z,1008.61
2018-12-10T02:01:11.137Z,1008.52
2018-12-10T02:01:37.236Z,1008.53
2018-12-10T02:02:03.377Z,1008.52
2018-12-10T02:02:29.479Z,1008.53
2018-12-10T02:02:55.589Z,1008.61
2018-12-10T02:03:21.696Z,1008.55
2018-12-10T02:03:47.830Z,1008.57
2018-12-10T02:04:13.939Z,1008.58
2018-12-10T02:04:40.043Z,1008.52
2018-12-10T02:05:06.146Z,1008.57
2018-12-10T02:05:32.251Z,1008.57
2018-12-10T02:05:58.362Z,1008.65
2018-12-10T02:06:24.462Z,1008.49
2018-12-10T02:06:50.604Z,1008.6
2018-12-10T02:07:16.703Z,1008.64
2018-12-10T02:07:42.869Z,1008.56
2018-12-10T02:08:08.977Z,1008.58
2018-12-10T02:08:35.086Z,1008.55
2018-12-10T02:09:01.188Z,1008.57
2018-12-10T02:09:27.298Z,1008.61
2018-12-10T02:09:53.398Z,1008.58
2018-12-10T02:10:19.528Z,1008.57
2018-12-10T02:10:45.633Z,1008.61
2018-12-10T02:11:11.762Z,1008.63
2018-12-10T02:11:37.895Z,1008.55
2018-12-10T02:12:04.026Z,1008.6
2018-12-10T02:12:30.130Z,1008.62
2018-12-10T02:12:56.270Z,1008.68
2018-12-10T02:13:22.368Z,1008.57
2018-12-10T02:13:48.472Z,1008.61
2018-12-10T02:14:14.579Z,1008.68
2018-12-10T02:14:40.684Z,1008.65
2018-12-10T02:15:06.829Z,1008.62
2018-12-10T02:15:32.961Z,1008.63
2018-12-10T02:15:59.103Z,1008.61
2018-12-10T02:16:25.211Z,1008.65
2018-12-10T02:16:51.313Z,1008.68
2018-12-10T02:17:17.411Z,1008.66
2018-12-10T02:17:43.572Z,1008.66
2018-12-10T02:18:09.782Z,1008.68
2018-12-10T02:18:35.892Z,1008.71
2018-12-10T02:19:02.000Z,1008.69
2018-12-10T02:19:28.106Z,1008.7
2018-12-10T02:19:54.204Z,1008.66
2018-12-10T02:20:20.316Z,1008.72
2018-12-10T02:20:46.445Z,1008.69
2018-12-10T02:21:12.551Z,1008.71
2018-12-10T02:21:38.648Z,1008.71
2018-12-10T02:22:04.756Z,1008.69
2018-12-10T02:22:30.860Z,1008.72
2018-12-10T02:22:56.967Z,1008.7
2018-12-10T02:23:23.079Z,1008.69
2018-12-10T02:23:49.208Z,1008.7
2018-12-10T02:24:15.341Z,1008.7
2018-12-10T02:24:41.446Z,1008.74
2018-12-10T02:25:07.667Z,1008.7
2018-12-10T02:25:33.713Z,1008.71
2018-12-10T02:25:59.824Z,1008.68
2018-12-10T02:26:25.922Z,1008.71
2018-12-10T02:26:52.032Z,1008.74
2018-12-10T02:27:18.137Z,1008.63
2018-12-10T02:27:44.243Z,1008.7
2018-12-10T02:28:10.348Z,1008.74
2018-12-10T02:28:36.461Z,1008.65
2018-12-10T02:29:02.590Z,1008.68
2018-12-10T02:29:28.695Z,1008.7
2018-12-10T02:29:54.798Z,1008.67
2018-12-10T02:30:20.930Z,1008.73
2018-12-10T02:30:47.096Z,1008.69
2018-12-10T02:31:13.232Z,1008.73
2018-12-10T02:31:39.363Z,1008.64
2018-12-10T02:32:05.504Z,1008.67
2018-12-10T02:32:31.639Z,1008.68
2018-12-10T02:32:57.766Z,1008.63
2018-12-10T02:33:23.874Z,1008.69
2018-12-10T02:33:49.976Z,1008.69
2018-12-10T02:34:16.082Z,1008.72
2018-12-10T02:34:42.196Z,1008.64
2018-12-10T02:35:08.332Z,1008.62
2018-12-10T02:35:34.438Z,1008.68
2018-12-10T02:36:00.585Z,1008.68
2018-12-10T02:36:26.697Z,1008.7
2018-12-10T02:36:52.796Z,1008.79
2018-12-10T02:37:19.000Z,1008.57
2018-12-10T02:37:45.055Z,1008.73
2018-12-10T02:38:11.191Z,1008.69
2018-12-10T02:38:37.296Z,1008.77
2018-12-10T02:39:03.403Z,1008.81
2018-12-10T02:39:29.537Z,1008.8
2018-12-10T02:39:55.639Z,1008.78
2018-12-10T02:40:21.768Z,1008.81
2018-12-10T02:40:47.861Z,1008.81
2018-12-10T02:41:13.969Z,1008.85
2018-12-10T02:41:40.079Z,1008.88
2018-12-10T02:42:06.244Z,1008.82
2018-12-10T02:42:32.366Z,1008.81
2018-12-10T02:42:58.479Z,1008.85
2018-12-10T02:43:24.643Z,1008.71
2018-12-10T02:43:50.785Z,1008.82
2018-12-10T02:44:16.915Z,1008.74
2018-12-10T02:44:43.026Z,1008.78
2018-12-10T02:45:09.132Z,1008.81
2018-12-10T02:45:35.235Z,1008.82
2018-12-10T02:46:01.373Z,1008.88
2018-12-10T02:46:27.593Z,1008.86
2018-12-10T02:46:53.698Z,1008.87
2018-12-10T02:47:19.807Z,1008.87
2018-12-10T02:47:45.972Z,1008.89
2018-12-10T02:48:12.076Z,1008.92
2018-12-10T02:48:38.180Z,1008.94
2018-12-10T02:49:04.282Z,1008.9
2018-12-10T02:49:30.418Z,1008.88
2018-12-10T02:49:56.552Z,1008.89
2018-12-10T02:50:22.656Z,1008.9
2018-12-10T02:50:48.760Z,1008.88
2018-12-10T02:51:14.867Z,1008.84
2018-12-10T02:51:40.973Z,1008.78
2018-12-10T02:52:07.161Z,1008.84
2018-12-10T02:52:33.294Z,1008.8
2018-12-10T02:52:59.427Z,1008.78
2018-12-10T02:53:25.556Z,1008.8
2018-12-10T02:53:51.720Z,1008.87
2018-12-10T02:54:17.850Z,1008.82
2018-12-10T02:54:44.002Z,1008.91
2018-12-10T02:55:10.116Z,1008.91
2018-12-10T02:55:36.347Z,1008.77
2018-12-10T02:56:02.505Z,1008.96
2018-12-10T02:56:28.609Z,1008.93
2018-12-10T02:56:54.782Z,1008.88
2018-12-10T02:57:20.844Z,1008.91
2018-12-10T02:57:46.976Z,1008.92
2018-12-10T02:58:13.080Z,1008.93
2018-12-10T02:58:39.185Z,1008.94
2018-12-10T02:59:05.347Z,1008.92
2018-12-10T02:59:31.486Z,1008.92
2018-12-10T02:59:57.625Z,1009.02
2018-12-10T03:00:23.787Z,1008.91
2018-12-10T03:00:49.931Z,1008.93
2018-12-10T03:01:16.086Z,1008.86
2018-12-10T03:01:42.194Z,1009.02
2018-12-10T03:02:08.301Z,1008.97
2018-12-10T03:02:34.402Z,1008.93
2018-12-10T03:03:00.538Z,1008.97
2018-12-10T03:03:26.659Z,1009
2018-12-10T03:03:52.790Z,1008.99
2018-12-10T03:04:18.892Z,1009.02
2018-12-10T03:04:44.998Z,1008.97
2018-12-10T03:05:11.103Z,1009.05
2018-12-10T03:05:37.254Z,1009.04
2018-12-10T03:06:03.366Z,1009.06
2018-12-10T03:06:29.490Z,1008.97
2018-12-10T03:06:55.606Z,1009.03
2018-12-10T03:07:21.737Z,1009.01
2018-12-10T03:07:47.871Z,1009.01
2018-12-10T03:08:14.048Z,1008.96
2018-12-10T03:08:40.158Z,1009.03
2018-12-10T03:09:06.259Z,1008.96
2018-12-10T03:09:32.368Z,1009.02
2018-12-10T03:09:58.473Z,1009.01
2018-12-10T03:10:24.608Z,1009.03
2018-12-10T03:10:50.734Z,1009.03
2018-12-10T03:11:16.845Z,1009.03
2018-12-10T03:11:42.939Z,1009.03
2018-12-10T03:12:09.104Z,1009.04
2018-12-10T03:12:35.208Z,1009.02
2018-12-10T03:13:01.312Z,1009.04
2018-12-10T03:13:27.422Z,1009.02
2018-12-10T03:13:53.537Z,1009.04
2018-12-10T03:14:19.633Z,1009.01
2018-12-10T03:14:45.763Z,1009.09
2018-12-10T03:15:11.870Z,1009.04
2018-12-10T03:15:37.972Z,1009.11
2018-12-10T03:16:04.080Z,1009.09
2018-12-10T03:16:30.212Z,1009.09
2018-12-10T03:16:56.319Z,1009.08
2018-12-10T03:17:22.455Z,1009.08
2018-12-10T03:17:48.580Z,1009.1
2018-12-10T03:18:14.683Z,1009.09
2018-12-10T03:18:40.788Z,1009.16
2018-12-10T03:19:06.893Z,1009.13
2018-12-10T03:19:32.992Z,1009.12
2018-12-10T03:19:59.103Z,1009.06
2018-12-10T03:20:25.221Z,1009.12
2018-12-10T03:20:52.800Z,1009.15
2018-12-10T03:21:18.417Z,1009.17
2018-12-10T03:21:44.525Z,1009.19
2018-12-10T03:22:10.627Z,1009.21
2018-12-10T03:22:36.740Z,1009.2
2018-12-10T03:23:02.864Z,1009.21
2018-12-10T03:23:29.004Z,1009.28
2018-12-10T03:23:55.103Z,1009.22
2018-12-10T03:24:21.226Z,1009.21
2018-12-10T03:24:47.381Z,1009.22
2018-12-10T03:25:13.491Z,1009.25
2018-12-10T03:25:39.594Z,1009.24
2018-12-10T03:26:05.721Z,1009.11
2018-12-10T03:26:31.859Z,1009.22
2018-12-10T03:26:57.995Z,1009.27
2018-12-10T03:27:24.127Z,1009.28
2018-12-10T03:27:50.233Z,1009.33
2018-12-10T03:28:16.432Z,1009.29
2018-12-10T03:28:42.559Z,1009.31
2018-12-10T03:29:08.686Z,1009.33
2018-12-10T03:29:34.846Z,1009.29
2018-12-10T03:30:00.947Z,1009.3
2018-12-10T03:30:27.103Z,1009.35
2018-12-10T03:30:53.271Z,1009.3
2018-12-10T03:31:19.444Z,1009.3
2018-12-10T03:31:45.573Z,1009.29
2018-12-10T03:32:11.729Z,1009.32
2018-12-10T03:32:37.948Z,1009.27
2018-12-10T03:33:04.132Z,1009.3
2018-12-10T03:33:30.531Z,1009.29
2018-12-10T03:33:56.633Z,1009.34
2018-12-10T03:34:22.759Z,1009.33
2018-12-10T03:34:48.868Z,1009.37
2018-12-10T03:35:14.998Z,1009.35
2018-12-10T03:35:41.132Z,1009.38
2018-12-10T03:36:07.243Z,1009.42
2018-12-10T03:36:33.431Z,1009.41
2018-12-10T03:36:59.543Z,1009.47
2018-12-10T03:37:25.738Z,1009.41
2018-12-10T03:37:52.862Z,1009.38
2018-12-10T03:38:18.999Z,1009.42
2018-12-10T03:38:45.102Z,1009.38
2018-12-10T03:39:11.203Z,1009.47
2018-12-10T03:39:37.320Z,1009.47
2018-12-10T03:40:03.452Z,1009.42
2018-12-10T03:40:29.582Z,1009.43
2018-12-10T03:40:55.689Z,1009.42
2018-12-10T03:41:21.793Z,1009.44
2018-12-10T03:41:47.977Z,1009.43
2018-12-10T03:42:14.089Z,1009.47
2018-12-10T03:42:40.193Z,1009.46
2018-12-10T03:43:06.306Z,1009.44
2018-12-10T03:43:32.421Z,1009.43
2018-12-10T03:43:58.578Z,1009.47
2018-12-10T03:44:24.687Z,1009.48
2018-12-10T03:44:50.788Z,1009.41
2018-12-10T03:45:16.891Z,1009.49
2018-12-10T03:45:43.002Z,1009.48
2018-12-10T03:46:09.189Z,1009.43
2018-12-10T03:46:35.289Z,1009.42
2018-12-10T03:47:01.395Z,1009.45
2018-12-10T03:47:27.508Z,1009.43
2018-12-10T03:47:53.608Z,1009.47
2018-12-10T03:48:19.748Z,1009.41
2018-12-10T03:48:45.851Z,1009.48
2018-12-10T03:49:11.953Z,1009.5
2018-12-10T03:49:38.059Z,1009.48
2018-12-10T03:50:04.196Z,1009.51
2018-12-10T03:50:30.302Z,1009.55
2018-12-10T03:50:56.407Z,1009.51
2018-12-10T03:51:22.549Z,1009.53
2018-12-10T03:51:48.712Z,1009.51
2018-12-10T03:52:14.813Z,1009.56
2018-12-10T03:52:40.949Z,1009.55
2018-12-10T03:53:07.053Z,1009.53
2018-12-10T03:53:33.188Z,1009.55
2018-12-10T03:53:59.303Z,1009.57
2018-12-10T03:54:25.406Z,1009.56
2018-12-10T03:54:51.542Z,1009.61
2018-12-10T03:55:17.704Z,1009.58
2018-12-10T03:55:43.802Z,1009.61
2018-12-10T03:56:09.945Z,1009.59
2018-12-10T03:56:36.081Z,1009.53
2018-12-10T03:57:02.248Z,1009.55
2018-12-10T03:57:28.373Z,1009.54
2018-12-10T03:57:54.488Z,1009.56
2018-12-10T03:58:20.590Z,1009.57
2018-12-10T03:58:46.725Z,1009.6
2018-12-10T03:59:12.851Z,1009.63
2018-12-10T03:59:38.956Z,1009.6
2018-12-10T04:00:05.095Z,1009.59
2018-12-10T04:00:31.223Z,1009.55
2018-12-10T04:00:57.359Z,1009.58
2018-12-10T04:01:23.496Z,1009.63
2018-12-10T04:01:49.731Z,1009.48
2018-12-10T04:02:15.861Z,1009.52
2018-12-10T04:02:41.994Z,1009.58
2018-12-10T04:03:08.094Z,1009.62
2018-12-10T04:03:34.198Z,1009.57
2018-12-10T04:04:00.301Z,1009.57
2018-12-10T04:04:26.447Z,1009.6
2018-12-10T04:04:52.575Z,1009.65
2018-12-10T04:05:18.686Z,1009.7
2018-12-10T04:05:44.816Z,1009.61
2018-12-10T04:06:10.921Z,1009.6
2018-12-10T04:06:37.025Z,1009.64
2018-12-10T04:07:03.178Z,1009.57
2018-12-10T04:07:29.309Z,1009.47
2018-12-10T04:07:55.417Z,1009.62
2018-12-10T04:08:21.524Z,1009.6
2018-12-10T04:08:47.661Z,1009.72
2018-12-10T04:09:13.820Z,1009.69
2018-12-10T04:09:39.953Z,1009.75
2018-12-10T04:10:06.082Z,1009.66
2018-12-10T04:10:32.192Z,1009.66
2018-12-10T04:10:58.324Z,1009.68
2018-12-10T04:11:24.426Z,1009.69
2018-12-10T04:11:50.539Z,1009.71
2018-12-10T04:12:16.638Z,1009.71
2018-12-10T04:12:42.749Z,1009.7
2018-12-10T04:13:08.848Z,1009.7
2018-12-10T04:13:34.960Z,1009.72
2018-12-10T04:14:01.059Z,1009.69
2018-12-10T04:14:27.168Z,1009.74
2018-12-10T04:14:53.273Z,1009.73
2018-12-10T04:15:19.378Z,1009.72
2018-12-10T04:15:45.503Z,1009.73
2018-12-10T04:16:11.666Z,1009.67
2018-12-10T04:16:37.779Z,1009.73
2018-12-10T04:17:03.873Z,1009.73
2018-12-10T04:17:29.981Z,1009.75
2018-12-10T04:17:56.081Z,1009.66
2018-12-10T04:18:22.185Z,1009.7
2018-12-10T04:18:48.323Z,1009.73
2018-12-10T04:19:14.435Z,1009.73
2018-12-10T04:19:40.622Z,1009.73
2018-12-10T04:20:06.755Z,1009.78
2018-12-10T04:20:32.965Z,1009.81
2018-12-10T04:20:59.074Z,1009.85
2018-12-10T04:21:25.181Z,1009.8
2018-12-10T04:21:51.314Z,1009.76
2018-12-10T04:22:17.419Z,1009.75
2018-12-10T04:22:43.524Z,1009.75
2018-12-10T04:23:09.674Z,1009.75
2018-12-10T04:23:35.818Z,1009.76
2018-12-10T04:24:01.925Z,1009.78
2018-12-10T04:24:28.050Z,1009.79
2018-12-10T04:24:54.190Z,1009.76
2018-12-10T04:25:20.314Z,1009.76
2018-12-10T04:25:46.416Z,1009.76
2018-12-10T04:26:12.522Z,1009.71
2018-12-10T04:26:38.629Z,1009.7
2018-12-10T04:27:04.738Z,1009.73
2018-12-10T04:27:30.900Z,1009.75
2018-12-10T04:27:57.054Z,1009.72
2018-12-10T04:28:23.185Z,1009.73
2018-12-10T04:28:49.320Z,1009.77
2018-12-10T04:29:15.454Z,1009.81
2018-12-10T04:29:41.592Z,1009.74
2018-12-10T04:30:07.696Z,1009.82
2018-12-10T04:30:33.804Z,1009.81
2018-12-10T04:30:59.907Z,1009.83
2018-12-10T04:31:26.039Z,1009.82
2018-12-10T04:31:52.157Z,1009.79
2018-12-10T04:32:18.287Z,1009.82
2018-12-10T04:32:44.400Z,1009.75
2018-12-10T04:33:10.539Z,1009.82
2018-12-10T04:33:36.641Z,1009.78
2018-12-10T04:34:02.781Z,1009.8
2018-12-10T04:34:28.912Z,1009.78
2018-12-10T04:34:55.021Z,1009.8
2018-12-10T04:35:21.199Z,1009.81
2018-12-10T04:35:47.330Z,1009.79
2018-12-10T04:36:13.501Z,1009.78
2018-12-10T04:36:39.610Z,1009.78
2018-12-10T04:37:05.743Z,1009.83
2018-12-10T04:37:31.857Z,1009.82
2018-12-10T04:37:57.996Z,1009.74
2018-12-10T04:38:24.091Z,1009.78
2018-12-10T04:38:50.195Z,1009.73
2018-12-10T04:39:16.337Z,1009.8
2018-12-10T04:39:42.466Z,1009.77
2018-12-10T04:40:08.582Z,1009.81
2018-12-10T04:40:34.713Z,1009.74
2018-12-10T04:41:00.850Z,1009.77
2018-12-10T04:41:26.994Z,1009.79
2018-12-10T04:41:53.130Z,1009.81
2018-12-10T04:42:19.262Z,1009.81
2018-12-10T04:42:45.401Z,1009.78
2018-12-10T04:43:11.534Z,1009.83
2018-12-10T04:43:37.652Z,1009.81
2018-12-10T04:44:03.815Z,1009.81
2018-12-10T04:44:29.959Z,1009.82
2018-12-10T04:44:56.059Z,1009.83
2018-12-10T04:45:22.193Z,1009.83
2018-12-10T04:45:48.316Z,1009.8
2018-12-10T04:46:14.417Z,1009.85
2018-12-10T04:46:40.548Z,1009.83
2018-12-10T04:47:06.679Z,1009.86
2018-12-10T04:47:32.786Z,1009.89
2018-12-10T04:47:58.921Z,1009.81
2018-12-10T04:48:25.045Z,1009.8
2018-12-10T04:48:51.159Z,1009.86
2018-12-10T04:49:17.265Z,1009.86
2018-12-10T04:49:43.368Z,1009.89
2018-12-10T04:50:09.473Z,1009.87
2018-12-10T04:50:35.581Z,1009.9
2018-12-10T04:51:01.687Z,1009.9
2018-12-10T04:51:27.840Z,1009.9
2018-12-10T04:51:54.023Z,1009.95
2018-12-10T04:52:20.143Z,1009.94
2018-12-10T04:52:46.291Z,1009.98
2018-12-10T04:53:12.445Z,1009.98
2018-12-10T04:53:38.585Z,1009.95
2018-12-10T04:54:04.683Z,1010
2018-12-10T04:54:30.870Z,1010.02
2018-12-10T04:54:57.957Z,1010.05
2018-12-10T04:55:24.066Z,1010.07
2018-12-10T04:55:50.197Z,1010.02
2018-12-10T04:56:16.300Z,1010.09
2018-12-10T04:56:42.427Z,1010.06
2018-12-10T04:57:08.531Z,1010.14
2018-12-10T04:57:34.632Z,1010.05
2018-12-10T04:58:00.736Z,1010.11
2018-12-10T04:58:26.878Z,1010.07
2018-12-10T04:58:52.981Z,1010.01
2018-12-10T04:59:19.085Z,1010.09
2018-12-10T04:59:52.556Z,1010.12
2018-12-10T05:00:13.741Z,1010.15
2018-12-10T05:00:39.879Z,1010.15
2018-12-10T05:01:05.985Z,1010.15
2018-12-10T05:01:32.087Z,1010.16
2018-12-10T05:01:58.194Z,1010.18
2018-12-10T05:02:24.301Z,1010.17
2018-12-10T05:02:50.406Z,1010.19
2018-12-10T05:03:16.505Z,1010.23
2018-12-10T05:03:42.649Z,1010.16
2018-12-10T05:04:08.757Z,1010.19
2018-12-10T05:04:34.860Z,1010.21
2018-12-10T05:05:01.000Z,1010.23
2018-12-10T05:05:27.110Z,1010.24
2018-12-10T05:05:53.241Z,1010.26
2018-12-10T05:06:19.377Z,1010.21
2018-12-10T05:06:45.481Z,1010.25
2018-12-10T05:07:11.583Z,1010.27
2018-12-10T05:07:37.715Z,1010.26
2018-12-10T05:08:05.439Z,1010.29
2018-12-10T05:08:30.917Z,1010.28
2018-12-10T05:08:57.020Z,1010.23
2018-12-10T05:09:23.135Z,1010.21
2018-12-10T05:09:49.239Z,1010.28
2018-12-10T05:10:15.345Z,1010.27
2018-12-10T05:10:41.448Z,1010.34
2018-12-10T05:11:07.578Z,1010.37
2018-12-10T05:11:33.680Z,1010.36
2018-12-10T05:11:59.785Z,1010.38
2018-12-10T05:12:25.899Z,1010.34
2018-12-10T05:12:52.001Z,1010.3
2018-12-10T05:13:18.106Z,1010.34
2018-12-10T05:13:44.213Z,1010.39
2018-12-10T05:14:10.314Z,1010.31
2018-12-10T05:14:36.484Z,1010.42
2018-12-10T05:15:02.589Z,1010.39
2018-12-10T05:15:28.723Z,1010.44
2018-12-10T05:15:54.831Z,1010.42
2018-12-10T05:16:20.930Z,1010.47
2018-12-10T05:16:47.034Z,1010.45
2018-12-10T05:17:13.145Z,1010.43